Fort Hope, Canada
Current Conditions -  °F | °C
As of 2:00 AM on Thursday 23 Oct 2014 (Local Time) from CYLH Reporting Station
Scattered Clouds Scattered Clouds  
Wind Chill: 37°   Ceiling: Unl
Heat Index: 43°   Visibility: 9mi
Dew Point: 32°   Wind: 9mph
Humidity: 66%   Direction: 200°SSW
Pressure: 29.94"   Gusts: NA
Location:  51.55°N, 87.98°W
Report Text: CYLH 230600Z AUTO 20008KT 9SM SCT095 06/00 A2994 RMK SLP147
Loading
Personal Weather Stations






























Interactive Weather Map
Tropical Storm Tracking
New forecast layout! Learn more

10-Day Weather Forecast

Advertisements
Track Severe Weather on mobile